createdAt,value
2022-11-15T00:02:18.737Z,23.03
2022-11-15T00:05:04.020Z,22.90
2022-11-15T00:07:55.525Z,23.80
2022-11-15T00:10:41.192Z,21.63
2022-11-15T00:13:26.813Z,23.13
2022-11-15T00:16:11.935Z,24.40
2022-11-15T00:18:58.359Z,21.67
2022-11-15T00:21:43.320Z,22.27
2022-11-15T00:24:28.165Z,21.67
2022-11-15T00:27:13.490Z,18.97
2022-11-15T00:29:58.786Z,18.27
2022-11-15T00:32:44.396Z,18.83
2022-11-15T00:35:30.004Z,16.17
2022-11-15T00:38:15.436Z,18.13
2022-11-15T00:41:05.031Z,19.13
2022-11-15T00:43:54.290Z,18.03
2022-11-15T00:46:39.328Z,17.40
2022-11-15T00:49:24.237Z,18.83
2022-11-15T00:52:09.809Z,16.70
2022-11-15T00:54:54.692Z,18.37
2022-11-15T00:57:39.904Z,19.50
2022-11-15T01:00:24.994Z,18.87
2022-11-15T01:03:10.101Z,16.33
2022-11-15T01:05:55.145Z,16.07
2022-11-15T01:08:40.940Z,19.10
2022-11-15T01:11:26.179Z,19.23
2022-11-15T01:14:11.609Z,17.87
2022-11-15T01:16:56.893Z,17.93
2022-11-15T01:19:41.812Z,19.00
2022-11-15T01:22:27.179Z,18.87
2022-11-15T01:25:12.599Z,17.90
2022-11-15T01:27:57.780Z,18.77
2022-11-15T01:30:43.162Z,18.83
2022-11-15T01:33:29.761Z,22.10
2022-11-15T01:36:22.588Z,18.53
2022-11-15T01:39:08.968Z,17.67
2022-11-15T01:41:54.194Z,16.97
2022-11-15T01:44:43.291Z,18.63
2022-11-15T01:47:42.241Z,19.20
2022-11-15T01:50:32.392Z,15.30
2022-11-15T01:53:20.137Z,16.27
2022-11-15T01:56:08.944Z,18.63
2022-11-15T01:58:56.444Z,18.67
2022-11-15T02:01:42.651Z,19.83
2022-11-15T02:04:33.697Z,18.13
2022-11-15T02:07:22.586Z,17.13
2022-11-15T02:10:28.344Z,15.30
2022-11-15T02:13:16.165Z,17.07
2022-11-15T02:16:17.477Z,17.30
2022-11-15T02:19:29.634Z,17.27
2022-11-15T02:22:38.325Z,18.63
2022-11-15T02:25:41.802Z,16.13
2022-11-15T02:28:54.250Z,15.97
2022-11-15T02:32:07.365Z,15.80
2022-11-15T02:34:57.335Z,17.57
2022-11-15T02:37:48.187Z,17.47
2022-11-15T02:40:42.725Z,13.20
2022-11-15T02:43:59.701Z,15.07
2022-11-15T02:47:19.398Z,15.60
2022-11-15T02:50:11.273Z,16.50
2022-11-15T02:52:56.813Z,18.43
2022-11-15T02:55:50.244Z,22.83
2022-11-15T02:59:05.893Z,18.80
2022-11-15T03:02:28.040Z,15.13
2022-11-15T03:05:24.834Z,15.90
2022-11-15T03:08:32.779Z,17.03
2022-11-15T03:11:20.665Z,17.83
2022-11-15T03:14:28.809Z,14.60
2022-11-15T03:17:17.549Z,17.93
2022-11-15T03:20:07.013Z,16.37
2022-11-15T03:22:55.275Z,16.77
2022-11-15T03:25:46.250Z,16.17
2022-11-15T03:28:57.924Z,17.33
2022-11-15T03:31:51.690Z,15.10
2022-11-15T03:34:45.055Z,19.10
2022-11-15T03:37:41.504Z,16.33
2022-11-15T03:40:34.525Z,15.10
2022-11-15T03:43:31.573Z,15.37
2022-11-15T03:46:34.800Z,16.70
2022-11-15T03:49:32.033Z,17.07
2022-11-15T03:52:20.048Z,14.67
2022-11-15T03:55:07.659Z,15.57
2022-11-15T03:57:56.921Z,16.00
2022-11-15T04:00:41.971Z,16.03
2022-11-15T04:03:26.687Z,18.17
2022-11-15T04:06:11.897Z,14.53
2022-11-15T04:08:56.912Z,14.37
2022-11-15T04:11:41.782Z,15.63
2022-11-15T04:14:27.091Z,13.37
2022-11-15T04:17:12.233Z,12.27
2022-11-15T04:20:15.811Z,11.93
2022-11-15T04:23:22.265Z,15.73
2022-11-15T04:26:15.746Z,14.70
2022-11-15T04:29:19.392Z,13.87
2022-11-15T04:32:06.743Z,14.60
2022-11-15T04:34:52.004Z,15.20
2022-11-15T04:37:36.773Z,13.03
2022-11-15T04:40:22.052Z,13.47
2022-11-15T04:43:07.064Z,13.93
2022-11-15T04:45:51.929Z,13.70
2022-11-15T04:48:36.865Z,12.00
2022-11-15T04:51:22.094Z,12.50
2022-11-15T04:54:07.319Z,12.53
2022-11-15T04:56:52.696Z,13.63
2022-11-15T04:59:38.052Z,11.97
2022-11-15T05:02:22.980Z,12.27
2022-11-15T05:05:08.363Z,10.97
2022-11-15T05:07:53.649Z,13.70
2022-11-15T05:10:38.734Z,10.13
2022-11-15T05:13:23.889Z,10.90
2022-11-15T05:16:09.144Z,11.73
2022-11-15T05:18:55.385Z,10.00
2022-11-15T05:21:40.640Z,12.30
2022-11-15T05:24:25.456Z,10.93
2022-11-15T05:27:10.705Z,9.83
2022-11-15T05:29:56.040Z,10.93
2022-11-15T05:32:41.029Z,11.63
2022-11-15T05:35:37.922Z,9.13
2022-11-15T05:38:24.587Z,9.10
2022-11-15T05:41:10.056Z,9.77
2022-11-15T05:43:55.320Z,9.60
2022-11-15T05:46:42.219Z,13.23
2022-11-15T05:49:32.469Z,9.93
2022-11-15T05:52:21.305Z,9.23
2022-11-15T05:55:09.534Z,8.63
2022-11-15T05:57:54.789Z,8.53
2022-11-15T06:00:40.335Z,9.73
2022-11-15T06:03:25.361Z,8.90
2022-11-15T06:06:16.098Z,8.50
2022-11-15T06:09:01.969Z,9.00
2022-11-15T06:11:47.162Z,10.73
2022-11-15T06:14:32.593Z,10.27
2022-11-15T06:17:17.740Z,9.60
2022-11-15T06:20:04.340Z,9.90
2022-11-15T06:22:49.118Z,13.27
2022-11-15T06:25:34.328Z,8.70
2022-11-15T06:28:19.675Z,8.63
2022-11-15T06:31:14.507Z,8.63
2022-11-15T06:33:59.334Z,8.97
2022-11-15T06:36:44.725Z,9.47
2022-11-15T06:39:29.559Z,8.87
2022-11-15T06:42:15.144Z,7.87
2022-11-15T06:45:00.625Z,9.10
2022-11-15T06:47:47.551Z,9.87
2022-11-15T06:50:32.630Z,10.87
2022-11-15T06:53:17.594Z,10.97
2022-11-15T06:56:04.520Z,8.70
2022-11-15T06:58:49.688Z,10.17
2022-11-15T07:01:34.976Z,9.60
2022-11-15T07:04:19.893Z,11.63
2022-11-15T07:07:04.947Z,10.70
2022-11-15T07:09:49.971Z,8.70
2022-11-15T07:12:35.413Z,9.63
2022-11-15T07:15:22.928Z,11.77
2022-11-15T07:18:08.012Z,13.23
2022-11-15T07:20:52.712Z,9.23
2022-11-15T07:23:39.078Z,10.63
2022-11-15T07:26:24.273Z,10.13
2022-11-15T07:29:09.284Z,9.70
2022-11-15T07:31:54.642Z,11.13
2022-11-15T07:34:39.765Z,12.10
2022-11-15T07:37:25.037Z,10.83
2022-11-15T07:40:10.491Z,11.67
2022-11-15T07:43:03.165Z,9.83
2022-11-15T07:45:48.049Z,9.93
2022-11-15T07:48:43.555Z,13.23
2022-11-15T07:51:29.704Z,10.20
2022-11-15T07:54:15.284Z,10.60
2022-11-15T07:57:05.492Z,10.07
2022-11-15T07:59:52.275Z,13.37
2022-11-15T08:02:37.712Z,10.50
2022-11-15T08:05:22.767Z,9.83
2022-11-15T08:08:10.154Z,9.77
2022-11-15T08:10:55.351Z,9.23
2022-11-15T08:13:40.013Z,11.17
2022-11-15T08:16:25.361Z,12.23
2022-11-15T08:19:10.195Z,10.50
2022-11-15T08:21:55.422Z,8.87
2022-11-15T08:24:40.669Z,9.97
2022-11-15T08:27:25.646Z,7.20
2022-11-15T08:30:12.026Z,8.10
2022-11-15T08:32:58.990Z,8.67
2022-11-15T08:35:44.943Z,8.43
2022-11-15T08:38:31.440Z,9.73
2022-11-15T08:41:27.729Z,9.47
2022-11-15T08:44:12.589Z,9.40
2022-11-15T08:46:57.862Z,9.57
2022-11-15T08:49:43.136Z,8.47
2022-11-15T08:52:28.356Z,11.87
2022-11-15T08:55:13.358Z,8.93
2022-11-15T08:57:59.057Z,8.87
2022-11-15T09:00:44.016Z,7.70
2022-11-15T09:03:29.494Z,8.07
2022-11-15T09:06:14.961Z,10.17
2022-11-15T09:09:02.109Z,8.73
2022-11-15T09:11:47.724Z,8.53
2022-11-15T09:14:32.933Z,7.77
2022-11-15T09:17:23.234Z,6.97
2022-11-15T09:20:10.061Z,13.30
2022-11-15T09:22:55.400Z,6.53
2022-11-15T09:25:40.379Z,7.87
2022-11-15T09:28:25.530Z,8.50
2022-11-15T09:31:11.150Z,7.80
2022-11-15T09:33:56.597Z,8.57
2022-11-15T09:36:41.847Z,6.83
2022-11-15T09:39:27.049Z,6.03
2022-11-15T09:42:42.793Z,6.73
2022-11-15T09:45:31.630Z,6.80
2022-11-15T09:48:44.696Z,5.47
2022-11-15T09:51:54.410Z,4.60
2022-11-15T09:57:36.031Z,3.50
2022-11-15T10:00:46.444Z,4.10
2022-11-15T10:03:37.091Z,4.03
2022-11-15T10:06:06.060Z,4.83
2022-11-15T10:08:51.614Z,4.27
2022-11-15T10:11:40.944Z,5.40
2022-11-15T10:14:26.490Z,4.20
2022-11-15T10:17:11.289Z,4.20
2022-11-15T10:20:05.661Z,4.30
2022-11-15T10:22:49.946Z,4.83
2022-11-15T10:25:25.927Z,4.13
2022-11-15T10:27:57.302Z,4.50
2022-11-15T10:30:29.620Z,4.00
2022-11-15T10:32:56.073Z,4.43
2022-11-15T10:35:28.912Z,4.97
2022-11-15T10:38:10.141Z,7.10
2022-11-15T10:40:38.642Z,4.10
2022-11-15T10:43:19.350Z,2.77
2022-11-15T10:45:47.397Z,3.10
2022-11-15T10:48:13.848Z,3.33
2022-11-15T10:50:43.571Z,4.10
2022-11-15T10:53:28.157Z,3.17
2022-11-15T10:55:57.597Z,8.63
2022-11-15T10:58:39.062Z,12.97
2022-11-15T11:01:20.864Z,4.63
2022-11-15T11:04:35.199Z,15.60
2022-11-15T11:07:01.783Z,7.80
2022-11-15T11:09:36.417Z,10.00
2022-11-15T11:12:30.311Z,8.37
2022-11-15T11:14:56.849Z,12.80
2022-11-15T11:17:52.334Z,14.70
2022-11-15T11:20:39.398Z,8.23
2022-11-15T11:23:44.075Z,6.10
2022-11-15T11:26:41.263Z,3.43
2022-11-15T11:29:33.099Z,6.27
2022-11-15T11:32:38.968Z,8.37
2022-11-15T11:35:18.591Z,10.53
2022-11-15T11:37:51.270Z,9.77
2022-11-15T11:40:56.312Z,4.17
2022-11-15T11:43:41.197Z,2.93
2022-11-15T11:46:39.702Z,4.17
2022-11-15T11:49:13.216Z,6.70
2022-11-15T11:51:45.075Z,4.70
2022-11-15T11:54:37.896Z,4.80
2022-11-15T11:57:18.187Z,3.37
2022-11-15T11:59:51.769Z,3.73
2022-11-15T12:02:30.098Z,7.77
2022-11-15T12:05:05.186Z,6.27
2022-11-15T12:07:36.814Z,4.27
2022-11-15T12:10:16.199Z,4.90
2022-11-15T12:12:51.485Z,3.20
2022-11-15T12:15:23.200Z,3.33
2022-11-15T12:17:50.243Z,3.93
2022-11-15T12:20:22.482Z,4.33
2022-11-15T12:23:00.064Z,4.73
2022-11-15T12:25:49.156Z,3.30
2022-11-15T12:29:06.491Z,3.73
2022-11-15T12:31:44.813Z,4.20
2022-11-15T12:34:29.601Z,2.90
2022-11-15T12:36:56.852Z,3.10
2022-11-15T12:40:04.020Z,3.93
2022-11-15T12:42:30.887Z,5.10
2022-11-15T12:44:59.919Z,4.80
2022-11-15T12:47:27.646Z,4.93
2022-11-15T12:49:54.848Z,4.23
2022-11-15T12:52:21.614Z,4.33
2022-11-15T12:54:54.638Z,4.40
2022-11-15T12:57:21.061Z,5.90
2022-11-15T13:00:04.117Z,3.70
2022-11-15T13:02:39.686Z,3.80
2022-11-15T13:05:21.392Z,3.20
2022-11-15T13:07:47.938Z,3.70
2022-11-15T13:10:14.604Z,4.27
2022-11-15T13:12:47.061Z,3.90
2022-11-15T13:15:13.479Z,3.50
2022-11-15T13:17:50.860Z,3.30
2022-11-15T13:20:17.393Z,5.20
2022-11-15T13:22:55.653Z,5.53
2022-11-15T13:25:40.220Z,3.80
2022-11-15T13:28:15.575Z,5.17
2022-11-15T13:31:22.475Z,4.43
2022-11-15T13:33:49.477Z,5.50
2022-11-15T13:36:23.852Z,4.40
2022-11-15T13:38:58.759Z,4.33
2022-11-15T13:41:36.910Z,3.73
2022-11-15T13:44:05.251Z,3.70
2022-11-15T13:46:36.031Z,3.83
2022-11-15T13:49:13.263Z,3.60
2022-11-15T13:51:52.600Z,5.17
2022-11-15T13:54:42.713Z,3.77
2022-11-15T13:57:26.237Z,5.00
2022-11-15T13:59:54.997Z,5.53
2022-11-15T14:02:33.461Z,6.90
2022-11-15T14:05:15.089Z,6.23
2022-11-15T14:07:58.515Z,6.37
2022-11-15T14:10:32.349Z,4.83
2022-11-15T14:12:59.210Z,5.03
2022-11-15T14:15:30.016Z,6.00
2022-11-15T14:17:56.516Z,5.67
2022-11-15T14:20:36.521Z,5.13
2022-11-15T14:23:25.196Z,6.50
2022-11-15T14:25:56.950Z,5.93
2022-11-15T14:28:23.316Z,5.40
2022-11-15T14:30:52.523Z,5.87
2022-11-15T14:33:30.435Z,6.93
2022-11-15T14:35:58.660Z,7.00
2022-11-15T14:38:26.507Z,10.40
2022-11-15T14:40:53.032Z,6.47
2022-11-15T14:43:19.779Z,6.13
2022-11-15T14:45:46.572Z,7.50
2022-11-15T14:48:13.023Z,6.53
2022-11-15T14:50:39.871Z,7.00
2022-11-15T14:53:07.080Z,7.07
2022-11-15T14:55:37.170Z,9.03
2022-11-15T14:58:04.513Z,9.90
2022-11-15T15:00:35.324Z,9.77
2022-11-15T15:03:02.874Z,5.67
2022-11-15T15:05:44.043Z,5.43
2022-11-15T15:08:11.866Z,6.07
2022-11-15T15:10:42.530Z,7.00
2022-11-15T15:13:21.734Z,7.13
2022-11-15T15:15:49.812Z,5.97
2022-11-15T15:18:16.675Z,8.93
2022-11-15T15:20:44.464Z,7.00
2022-11-15T15:23:19.568Z,7.83
2022-11-15T15:25:48.777Z,7.67
2022-11-15T15:28:15.771Z,7.07
2022-11-15T15:30:42.588Z,8.93
2022-11-15T15:33:09.204Z,5.87
2022-11-15T15:35:36.179Z,10.90
2022-11-15T15:38:04.463Z,8.00
2022-11-15T15:40:33.488Z,11.83
2022-11-15T15:43:00.188Z,9.70
2022-11-15T15:45:29.165Z,8.90
2022-11-15T15:47:55.794Z,6.80
2022-11-15T15:50:22.631Z,8.40
2022-11-15T15:52:50.243Z,6.17
2022-11-15T15:55:16.778Z,5.77
2022-11-15T15:57:43.429Z,5.40
2022-11-15T16:00:10.888Z,7.90
2022-11-15T16:02:40.978Z,6.40
2022-11-15T16:05:13.082Z,6.53
2022-11-15T16:07:40.979Z,6.53
2022-11-15T16:10:26.885Z,7.23
2022-11-15T16:12:54.734Z,7.17
2022-11-15T16:15:22.852Z,8.00
2022-11-15T16:17:54.861Z,6.97
2022-11-15T16:20:33.010Z,7.50
2022-11-15T16:23:04.319Z,7.73
2022-11-15T16:25:56.433Z,7.13
2022-11-15T16:28:25.427Z,12.13
2022-11-15T16:31:05.376Z,7.80
2022-11-15T16:33:33.211Z,9.33
2022-11-15T16:35:59.958Z,6.60
2022-11-15T16:38:26.561Z,9.20
2022-11-15T16:40:53.014Z,8.27
2022-11-15T16:43:19.596Z,7.20
2022-11-15T16:45:46.851Z,7.43
2022-11-15T16:48:23.659Z,8.43
2022-11-15T16:50:50.641Z,8.43
2022-11-15T16:53:17.434Z,8.70
2022-11-15T16:55:44.135Z,7.57
2022-11-15T16:58:10.671Z,7.43
2022-11-15T17:00:37.169Z,6.60
2022-11-15T17:03:04.290Z,6.70
2022-11-15T17:05:30.793Z,6.53
2022-11-15T17:07:57.342Z,6.00
2022-11-15T17:10:26.108Z,6.60
2022-11-15T17:12:55.326Z,7.30
2022-11-15T17:15:22.753Z,6.53
2022-11-15T17:17:53.850Z,6.83
2022-11-15T17:20:22.961Z,8.00
2022-11-15T17:22:49.768Z,7.70
2022-11-15T17:25:16.750Z,6.47
2022-11-15T17:27:43.233Z,7.17
2022-11-15T17:30:19.984Z,8.53
2022-11-15T17:32:47.877Z,6.33
2022-11-15T17:35:15.962Z,7.13
2022-11-15T17:37:43.294Z,8.53
2022-11-15T17:40:10.386Z,6.70
2022-11-15T17:42:37.144Z,7.70
2022-11-15T17:45:09.317Z,9.47
2022-11-15T17:47:36.673Z,9.60
2022-11-15T17:50:03.472Z,7.23
2022-11-15T17:52:30.563Z,8.57
2022-11-15T17:54:57.018Z,6.80
2022-11-15T17:57:23.455Z,8.60
2022-11-15T17:59:49.902Z,7.57
2022-11-15T18:02:16.665Z,8.90
2022-11-15T18:04:43.099Z,9.87
2022-11-15T18:07:11.573Z,13.13
2022-11-15T18:09:42.115Z,12.47
2022-11-15T18:12:09.180Z,8.93
2022-11-15T18:14:35.685Z,8.50
2022-11-15T18:17:03.949Z,7.93
2022-11-15T18:19:30.445Z,7.93
2022-11-15T18:21:57.010Z,7.93
2022-11-15T18:24:27.119Z,8.13
2022-11-15T18:26:53.697Z,8.63
2022-11-15T18:29:21.250Z,9.70
2022-11-15T18:31:50.249Z,10.47
2022-11-15T18:34:17.753Z,10.83
2022-11-15T18:36:44.406Z,10.03
2022-11-15T18:39:16.326Z,9.20
2022-11-15T18:41:44.574Z,11.63
2022-11-15T18:44:11.013Z,10.90
2022-11-15T18:46:39.164Z,10.63
2022-11-15T18:49:09.531Z,11.37
2022-11-15T18:51:41.675Z,9.83
2022-11-15T18:54:10.646Z,12.63
2022-11-15T18:56:37.748Z,11.70
2022-11-15T18:59:05.155Z,10.43
2022-11-15T19:01:35.726Z,10.47
2022-11-15T19:04:08.333Z,10.33
2022-11-15T19:06:41.227Z,10.13
2022-11-15T19:09:09.142Z,14.13
2022-11-15T19:11:39.255Z,11.40
2022-11-15T19:14:11.202Z,11.27
2022-11-15T19:16:40.103Z,14.13
2022-11-15T19:19:10.645Z,11.30
2022-11-15T19:21:37.244Z,10.70
2022-11-15T19:24:04.079Z,13.00
2022-11-15T19:26:30.607Z,12.27
2022-11-15T19:29:02.122Z,15.43
2022-11-15T19:31:30.354Z,10.53
2022-11-15T19:33:59.496Z,12.73
2022-11-15T19:36:48.012Z,10.53
2022-11-15T19:39:15.444Z,10.60
2022-11-15T19:41:43.471Z,12.80
2022-11-15T19:44:11.575Z,12.03
2022-11-15T19:46:38.279Z,9.13
2022-11-15T19:49:08.059Z,10.07
2022-11-15T19:51:34.571Z,9.37
2022-11-15T19:54:06.342Z,9.03
2022-11-15T19:56:34.808Z,11.43
2022-11-15T19:59:02.402Z,7.93
2022-11-15T20:01:33.087Z,7.97
2022-11-15T20:04:00.492Z,8.93
2022-11-15T20:06:31.168Z,8.10
2022-11-15T20:08:58.069Z,8.73
2022-11-15T20:11:25.760Z,9.70
2022-11-15T20:13:57.366Z,10.30
2022-11-15T20:16:24.053Z,10.67
2022-11-15T20:18:51.540Z,8.83
2022-11-15T20:21:18.837Z,8.83
2022-11-15T20:23:45.636Z,8.97
2022-11-15T20:26:15.344Z,10.37
2022-11-15T20:28:42.138Z,7.90
2022-11-15T20:31:09.845Z,7.93
2022-11-15T20:33:36.461Z,8.90
2022-11-15T20:36:09.573Z,9.37
2022-11-15T20:38:36.191Z,7.90
2022-11-15T20:41:03.128Z,9.80
2022-11-15T20:43:29.664Z,8.77
2022-11-15T20:45:56.107Z,10.67
2022-11-15T20:48:22.933Z,8.63
2022-11-15T20:50:49.590Z,8.87
2022-11-15T20:53:19.170Z,9.03
2022-11-15T20:55:49.033Z,6.97
2022-11-15T20:58:16.872Z,8.23
2022-11-15T21:00:45.488Z,7.47
2022-11-15T21:03:14.001Z,8.93
2022-11-15T21:05:42.867Z,10.50
2022-11-15T21:08:10.629Z,9.60
2022-11-15T21:10:56.053Z,8.67
2022-11-15T21:13:22.756Z,10.70
2022-11-15T21:15:50.214Z,8.80
2022-11-15T21:18:17.001Z,7.03
2022-11-15T21:20:43.537Z,9.13
2022-11-15T21:23:11.501Z,8.30
2022-11-15T21:25:37.985Z,9.93
2022-11-15T21:28:04.454Z,9.10
2022-11-15T21:30:31.227Z,8.23
2022-11-15T21:32:57.705Z,8.80
2022-11-15T21:35:24.380Z,7.70
2022-11-15T21:37:56.473Z,10.90
2022-11-15T21:40:23.658Z,6.40
2022-11-15T21:42:50.037Z,10.17
2022-11-15T21:45:16.755Z,8.27
2022-11-15T21:47:46.132Z,7.07
2022-11-15T21:50:13.813Z,5.70
2022-11-15T21:52:40.716Z,8.40
2022-11-15T21:55:08.549Z,7.93
2022-11-15T21:57:35.058Z,6.63
2022-11-15T22:00:22.279Z,9.23
2022-11-15T22:02:48.788Z,11.87
2022-11-15T22:05:16.118Z,8.37
2022-11-15T22:07:42.629Z,6.80
2022-11-15T22:10:09.452Z,7.50
2022-11-15T22:12:36.282Z,7.90
2022-11-15T22:15:02.995Z,7.70
2022-11-15T22:17:49.437Z,8.63
2022-11-15T22:20:42.931Z,7.77
2022-11-15T22:23:03.027Z,7.83
2022-11-15T22:25:29.659Z,9.83
2022-11-15T22:27:56.547Z,7.17
2022-11-15T22:30:24.201Z,8.13
2022-11-15T22:32:50.664Z,6.87
2022-11-15T22:35:17.336Z,6.43
2022-11-15T22:37:43.757Z,6.43
2022-11-15T22:40:10.562Z,6.53
2022-11-15T22:42:36.999Z,7.23
2022-11-15T22:45:04.040Z,9.00
2022-11-15T22:47:30.489Z,9.93
2022-11-15T22:49:56.960Z,6.83
2022-11-15T22:52:23.469Z,6.83
2022-11-15T22:54:49.975Z,7.57
2022-11-15T22:57:16.605Z,6.87
2022-11-15T22:59:43.295Z,5.77
2022-11-15T23:02:09.742Z,6.03
2022-11-15T23:05:01.487Z,6.60
2022-11-15T23:07:28.331Z,6.13
2022-11-15T23:10:13.457Z,7.80
2022-11-15T23:12:59.104Z,6.97
2022-11-15T23:15:29.524Z,5.63
2022-11-15T23:17:58.782Z,6.67
2022-11-15T23:20:42.539Z,5.43
2022-11-15T23:23:11.226Z,5.50
2022-11-15T23:25:37.765Z,6.53
2022-11-15T23:28:05.172Z,7.90
2022-11-15T23:30:54.252Z,8.30
2022-11-15T23:33:39.859Z,8.23
2022-11-15T23:36:07.319Z,6.37
2022-11-15T23:38:37.063Z,7.17
2022-11-15T23:41:05.304Z,7.23
2022-11-15T23:43:32.244Z,7.57
2022-11-15T23:46:01.953Z,8.17
2022-11-15T23:48:28.706Z,5.90
2022-11-15T23:50:55.210Z,7.93
2022-11-15T23:53:21.669Z,7.13
2022-11-15T23:56:00.597Z,8.63
2022-11-15T23:58:28.417Z,7.40
